createdAt,value
2022-10-11T12:11:16.620Z,1017.97
2022-10-11T12:12:16.575Z,1017.98
2022-10-11T12:13:16.559Z,1017.95
2022-10-11T12:14:16.540Z,1017.94
2022-10-11T12:15:16.525Z,1017.91
2022-10-11T12:16:16.518Z,1017.92
2022-10-11T12:17:16.498Z,1017.94
2022-10-11T12:18:16.484Z,1017.87
2022-10-11T12:19:16.466Z,1017.90
2022-10-11T12:20:16.449Z,1017.87
2022-10-11T12:21:16.442Z,1017.79
2022-10-11T12:23:34.850Z,1017.85
2022-10-11T12:24:34.822Z,1017.80
2022-10-11T12:25:34.809Z,1017.79
2022-10-11T12:26:34.801Z,1017.84
2022-10-11T12:27:34.780Z,1017.90
2022-10-11T12:28:34.817Z,1017.79
2022-10-11T12:29:34.742Z,1017.85
2022-10-11T12:30:34.725Z,1017.87
2022-10-11T12:31:34.745Z,1017.84
2022-10-11T12:36:41.741Z,1017.72
2022-10-11T12:37:41.714Z,1017.81
2022-10-11T12:38:41.700Z,1017.82
2022-10-11T12:39:41.678Z,1017.80
2022-10-11T12:40:41.665Z,1017.77
2022-10-11T12:41:41.635Z,1017.77
2022-10-11T12:42:41.642Z,1017.75
2022-10-11T12:43:41.620Z,1017.72
2022-10-11T12:44:41.598Z,1017.67
2022-10-11T12:45:41.573Z,1017.67
2022-10-11T12:46:41.555Z,1017.64
2022-10-11T12:47:41.561Z,1017.68
2022-10-11T12:48:41.636Z,1017.62
2022-10-11T12:49:41.513Z,1017.61
2022-10-11T12:50:41.491Z,1017.56
2022-10-11T12:51:41.483Z,1017.58
2022-10-11T12:52:41.475Z,1017.59
2022-10-11T12:53:41.446Z,1017.57
2022-10-11T12:54:41.437Z,1017.58
2022-10-11T12:55:41.425Z,1017.57
2022-10-11T12:56:41.398Z,1017.52
2022-10-11T12:57:45.899Z,1017.52
2022-10-11T12:58:41.394Z,1017.51
2022-10-11T12:59:41.363Z,1017.53
2022-10-11T13:00:41.338Z,1017.52
2022-10-11T13:01:41.359Z,1017.51
2022-10-11T13:02:41.326Z,1017.52
2022-10-11T13:03:41.304Z,1017.47
2022-10-11T13:04:41.288Z,1017.53
2022-10-11T13:05:44.779Z,1017.44
2022-10-11T13:06:41.260Z,1017.44
2022-10-11T13:07:41.262Z,1017.45
2022-10-11T13:08:41.233Z,1017.39
2022-10-11T13:09:45.279Z,1017.36
2022-10-11T13:10:41.205Z,1017.39
2022-10-11T13:11:41.182Z,1017.37
2022-10-11T13:12:41.175Z,1017.32
2022-10-11T13:13:41.175Z,1017.35
2022-10-11T13:14:48.915Z,1017.32
2022-10-11T13:15:41.128Z,1017.28
2022-10-11T13:16:41.109Z,1017.25
2022-10-11T13:17:41.094Z,1017.23
2022-10-11T13:18:41.104Z,1017.26
2022-10-11T13:20:42.525Z,1017.21
2022-10-11T13:21:41.043Z,1017.22
2022-10-11T13:22:41.018Z,1017.22
2022-10-11T13:23:41.032Z,1017.19
2022-10-11T13:24:40.995Z,1017.19
2022-10-11T13:25:40.986Z,1017.20
2022-10-11T13:26:40.958Z,1017.20
2022-10-11T13:27:40.946Z,1017.15
2022-10-11T13:28:40.968Z,1017.15
2022-10-11T13:29:40.942Z,1017.17
2022-10-11T13:30:40.899Z,1017.13
2022-10-11T13:31:40.883Z,1017.11
2022-10-11T13:32:40.880Z,1017.12
2022-10-11T13:33:40.867Z,1017.12
2022-10-11T13:34:40.874Z,1017.11
2022-10-11T13:35:40.825Z,1017.14
2022-10-11T13:36:40.850Z,1017.09
2022-10-11T13:37:40.808Z,1017.11
2022-10-11T13:38:40.786Z,1017.13
2022-10-11T13:39:40.786Z,1017.13
2022-10-11T13:40:40.762Z,1017.12
2022-10-11T13:41:40.738Z,1017.12
2022-10-11T13:42:40.737Z,1017.12
2022-10-11T13:43:40.717Z,1017.14
2022-10-11T13:44:40.715Z,1017.10
2022-10-11T13:45:40.724Z,1017.11
2022-10-11T13:46:41.892Z,1017.13
2022-10-11T13:47:40.650Z,1017.10
2022-10-11T13:48:40.638Z,1017.11
2022-10-11T13:49:40.614Z,1017.16
2022-10-11T13:50:40.663Z,1017.10
2022-10-11T13:51:40.614Z,1017.12
2022-10-11T13:52:40.569Z,1017.08
2022-10-11T13:53:40.570Z,1017.08
2022-10-11T13:54:40.557Z,1017.10
2022-10-11T13:55:40.547Z,1017.11
2022-10-11T13:56:40.517Z,1017.09
2022-10-11T13:57:40.521Z,1017.09
2022-10-11T13:58:40.567Z,1017.11
2022-10-11T13:59:40.496Z,1017.08
2022-10-11T14:00:40.478Z,1017.05
2022-10-11T14:01:40.573Z,1017.00
2022-10-11T14:02:40.437Z,1017.00
2022-10-11T14:03:40.419Z,1016.98
2022-10-11T14:04:40.406Z,1016.96
2022-10-11T14:05:40.418Z,1016.94
2022-10-11T14:06:40.414Z,1016.99
2022-10-11T14:08:05.452Z,1016.98
2022-10-11T14:12:54.112Z,1016.91
2022-10-11T14:13:54.110Z,1016.93
2022-10-11T14:14:54.059Z,1016.93
2022-10-11T14:15:54.065Z,1016.97
2022-10-11T14:16:54.049Z,1017.01
2022-10-11T14:17:54.025Z,1017.06
2022-10-11T14:18:54.013Z,1017.13
2022-10-11T14:19:53.994Z,1017.13
2022-10-11T14:20:53.982Z,1017.18
2022-10-11T14:21:53.972Z,1017.22
2022-10-11T14:22:53.989Z,1017.22
2022-10-11T14:23:53.933Z,1017.19
2022-10-11T14:24:53.929Z,1017.19
2022-10-11T14:25:53.906Z,1017.07
2022-10-11T14:26:53.966Z,1016.92
2022-10-11T14:27:53.899Z,1016.87
2022-10-11T14:28:53.902Z,1016.81
2022-10-11T14:30:23.584Z,1016.82
2022-10-11T14:30:53.828Z,1016.85
2022-10-11T14:31:53.827Z,1016.79
2022-10-11T14:32:53.802Z,1016.81
